sensor_id;sensor_type;location;lat;lon;timestamp;P1;durP1;ratioP1;P2;durP2;ratioP2
34876;SDS011;21086;44.780;17.194;2023-03-23T00:01:19;30.80;;;19.38;;
34876;SDS011;21086;44.780;17.194;2023-03-23T00:03:47;29.85;;;20.30;;
34876;SDS011;21086;44.780;17.194;2023-03-23T00:06:15;27.98;;;18.38;;
34876;SDS011;21086;44.780;17.194;2023-03-23T00:08:43;26.58;;;18.50;;
34876;SDS011;21086;44.780;17.194;2023-03-23T00:11:18;24.33;;;16.25;;
34876;SDS011;21086;44.780;17.194;2023-03-23T00:13:46;22.45;;;15.95;;
34876;SDS011;21086;44.780;17.194;2023-03-23T00:16:16;21.20;;;14.50;;
34876;SDS011;21086;44.780;17.194;2023-03-23T00:18:46;24.95;;;16.33;;
34876;SDS011;21086;44.780;17.194;2023-03-23T00:21:13;22.75;;;15.00;;
34876;SDS011;21086;44.780;17.194;2023-03-23T00:23:39;22.50;;;14.98;;
34876;SDS011;21086;44.780;17.194;2023-03-23T00:26:05;26.05;;;14.35;;
34876;SDS011;21086;44.780;17.194;2023-03-23T00:28:31;20.83;;;13.00;;
34876;SDS011;21086;44.780;17.194;2023-03-23T00:31:01;16.33;;;11.57;;
34876;SDS011;21086;44.780;17.194;2023-03-23T00:33:30;18.90;;;11.75;;
34876;SDS011;21086;44.780;17.194;2023-03-23T00:36:03;24.63;;;15.88;;
34876;SDS011;21086;44.780;17.194;2023-03-23T00:38:31;24.77;;;16.25;;
34876;SDS011;21086;44.780;17.194;2023-03-23T00:40:56;23.60;;;16.08;;
34876;SDS011;21086;44.780;17.194;2023-03-23T00:43:23;16.15;;;11.70;;
34876;SDS011;21086;44.780;17.194;2023-03-23T00:45:50;18.77;;;13.18;;
34876;SDS011;21086;44.780;17.194;2023-03-23T00:48:20;17.20;;;10.75;;
34876;SDS011;21086;44.780;17.194;2023-03-23T00:50:47;23.08;;;11.02;;
34876;SDS011;21086;44.780;17.194;2023-03-23T00:53:14;16.00;;;10.52;;
34876;SDS011;21086;44.780;17.194;2023-03-23T00:55:41;13.40;;;10.70;;
34876;SDS011;21086;44.780;17.194;2023-03-23T00:58:08;19.00;;;11.15;;
34876;SDS011;21086;44.780;17.194;2023-03-23T01:00:35;13.52;;;9.98;;
34876;SDS011;21086;44.780;17.194;2023-03-23T01:03:02;12.60;;;9.73;;
34876;SDS011;21086;44.780;17.194;2023-03-23T01:05:28;14.40;;;9.88;;
34876;SDS011;21086;44.780;17.194;2023-03-23T01:07:57;13.80;;;9.95;;
34876;SDS011;21086;44.780;17.194;2023-03-23T01:10:23;17.08;;;10.02;;
34876;SDS011;21086;44.780;17.194;2023-03-23T01:12:51;16.65;;;10.63;;
34876;SDS011;21086;44.780;17.194;2023-03-23T01:15:18;15.60;;;10.18;;
34876;SDS011;21086;44.780;17.194;2023-03-23T01:17:44;17.52;;;11.43;;
34876;SDS011;21086;44.780;17.194;2023-03-23T01:20:11;17.05;;;11.77;;
34876;SDS011;21086;44.780;17.194;2023-03-23T01:22:38;17.73;;;11.85;;
34876;SDS011;21086;44.780;17.194;2023-03-23T01:25:05;17.60;;;11.93;;
34876;SDS011;21086;44.780;17.194;2023-03-23T01:27:32;17.23;;;10.93;;
34876;SDS011;21086;44.780;17.194;2023-03-23T01:29:58;12.55;;;8.52;;
34876;SDS011;21086;44.780;17.194;2023-03-23T01:32:23;12.07;;;8.88;;
34876;SDS011;21086;44.780;17.194;2023-03-23T01:34:50;13.73;;;8.75;;
34876;SDS011;21086;44.780;17.194;2023-03-23T01:37:15;13.43;;;7.97;;
34876;SDS011;21086;44.780;17.194;2023-03-23T01:39:41;12.90;;;8.15;;
34876;SDS011;21086;44.780;17.194;2023-03-23T01:42:08;14.63;;;9.05;;
34876;SDS011;21086;44.780;17.194;2023-03-23T01:47:03;11.98;;;8.15;;
34876;SDS011;21086;44.780;17.194;2023-03-23T01:49:40;11.38;;;8.18;;
34876;SDS011;21086;44.780;17.194;2023-03-23T01:52:22;10.18;;;7.43;;
34876;SDS011;21086;44.780;17.194;2023-03-23T01:54:51;12.77;;;8.48;;
34876;SDS011;21086;44.780;17.194;2023-03-23T01:57:22;12.40;;;8.43;;
34876;SDS011;21086;44.780;17.194;2023-03-23T01:59:55;11.52;;;8.93;;
34876;SDS011;21086;44.780;17.194;2023-03-23T02:02:25;13.43;;;8.32;;
34876;SDS011;21086;44.780;17.194;2023-03-23T02:04:52;11.43;;;7.30;;
34876;SDS011;21086;44.780;17.194;2023-03-23T02:07:24;10.80;;;8.27;;
34876;SDS011;21086;44.780;17.194;2023-03-23T02:09:51;11.07;;;7.50;;
34876;SDS011;21086;44.780;17.194;2023-03-23T02:12:17;9.52;;;7.53;;
34876;SDS011;21086;44.780;17.194;2023-03-23T02:14:43;9.27;;;6.95;;
34876;SDS011;21086;44.780;17.194;2023-03-23T02:25:55;13.90;;;10.38;;
34876;SDS011;21086;44.780;17.194;2023-03-23T02:39:05;18.67;;;12.32;;
34876;SDS011;21086;44.780;17.194;2023-03-23T02:41:43;18.48;;;11.85;;
34876;SDS011;21086;44.780;17.194;2023-03-23T02:44:13;22.38;;;13.63;;
34876;SDS011;21086;44.780;17.194;2023-03-23T02:46:41;16.70;;;11.70;;
34876;SDS011;21086;44.780;17.194;2023-03-23T02:49:09;15.18;;;10.35;;
34876;SDS011;21086;44.780;17.194;2023-03-23T02:51:39;13.75;;;9.20;;
34876;SDS011;21086;44.780;17.194;2023-03-23T02:54:07;15.20;;;8.75;;
34876;SDS011;21086;44.780;17.194;2023-03-23T02:56:34;11.80;;;8.45;;
34876;SDS011;21086;44.780;17.194;2023-03-23T02:59:01;14.00;;;8.13;;
34876;SDS011;21086;44.780;17.194;2023-03-23T03:03:54;12.57;;;9.30;;
34876;SDS011;21086;44.780;17.194;2023-03-23T03:09:02;12.80;;;7.47;;
34876;SDS011;21086;44.780;17.194;2023-03-23T03:11:39;12.32;;;8.10;;
34876;SDS011;21086;44.780;17.194;2023-03-23T03:14:13;12.15;;;8.30;;
34876;SDS011;21086;44.780;17.194;2023-03-23T03:17:00;19.08;;;10.25;;
34876;SDS011;21086;44.780;17.194;2023-03-23T03:19:48;15.07;;;9.00;;
34876;SDS011;21086;44.780;17.194;2023-03-23T03:22:18;12.07;;;8.27;;
34876;SDS011;21086;44.780;17.194;2023-03-23T03:24:46;14.77;;;8.55;;
34876;SDS011;21086;44.780;17.194;2023-03-23T03:27:16;10.27;;;7.13;;
34876;SDS011;21086;44.780;17.194;2023-03-23T03:29:46;12.05;;;8.05;;
34876;SDS011;21086;44.780;17.194;2023-03-23T03:32:17;12.02;;;7.82;;
34876;SDS011;21086;44.780;17.194;2023-03-23T03:34:48;12.02;;;8.43;;
34876;SDS011;21086;44.780;17.194;2023-03-23T03:37:15;13.50;;;8.40;;
34876;SDS011;21086;44.780;17.194;2023-03-23T03:39:43;9.27;;;6.55;;
34876;SDS011;21086;44.780;17.194;2023-03-23T03:42:10;9.75;;;6.13;;
34876;SDS011;21086;44.780;17.194;2023-03-23T03:44:36;11.38;;;8.00;;
34876;SDS011;21086;44.780;17.194;2023-03-23T03:47:02;10.15;;;6.45;;
34876;SDS011;21086;44.780;17.194;2023-03-23T03:49:28;12.63;;;7.40;;
34876;SDS011;21086;44.780;17.194;2023-03-23T03:51:54;11.95;;;6.28;;
34876;SDS011;21086;44.780;17.194;2023-03-23T03:54:21;9.23;;;6.35;;
34876;SDS011;21086;44.780;17.194;2023-03-23T03:56:47;11.38;;;6.93;;
34876;SDS011;21086;44.780;17.194;2023-03-23T03:59:13;7.68;;;5.72;;
34876;SDS011;21086;44.780;17.194;2023-03-23T04:01:38;11.82;;;6.05;;
34876;SDS011;21086;44.780;17.194;2023-03-23T04:04:04;8.52;;;5.65;;
34876;SDS011;21086;44.780;17.194;2023-03-23T04:06:32;14.82;;;9.38;;
34876;SDS011;21086;44.780;17.194;2023-03-23T04:09:02;12.32;;;8.10;;
34876;SDS011;21086;44.780;17.194;2023-03-23T04:11:32;9.75;;;6.93;;
34876;SDS011;21086;44.780;17.194;2023-03-23T04:13:58;11.07;;;7.03;;
34876;SDS011;21086;44.780;17.194;2023-03-23T04:16:25;12.82;;;6.80;;
34876;SDS011;21086;44.780;17.194;2023-03-23T04:18:51;10.05;;;6.18;;
34876;SDS011;21086;44.780;17.194;2023-03-23T04:21:17;10.05;;;6.53;;
34876;SDS011;21086;44.780;17.194;2023-03-23T04:23:43;10.38;;;6.63;;
34876;SDS011;21086;44.780;17.194;2023-03-23T04:26:08;10.10;;;6.88;;
34876;SDS011;21086;44.780;17.194;2023-03-23T04:28:38;9.23;;;6.35;;
34876;SDS011;21086;44.780;17.194;2023-03-23T04:31:06;10.95;;;6.47;;
34876;SDS011;21086;44.780;17.194;2023-03-23T04:33:32;9.55;;;6.57;;
34876;SDS011;21086;44.780;17.194;2023-03-23T04:35:59;9.05;;;5.97;;
34876;SDS011;21086;44.780;17.194;2023-03-23T04:38:28;9.07;;;5.32;;
34876;SDS011;21086;44.780;17.194;2023-03-23T04:40:55;9.65;;;6.03;;
34876;SDS011;21086;44.780;17.194;2023-03-23T04:43:21;10.50;;;6.75;;
34876;SDS011;21086;44.780;17.194;2023-03-23T04:45:55;13.05;;;7.93;;
34876;SDS011;21086;44.780;17.194;2023-03-23T04:48:22;11.75;;;8.05;;
34876;SDS011;21086;44.780;17.194;2023-03-23T04:50:49;11.60;;;7.38;;
34876;SDS011;21086;44.780;17.194;2023-03-23T04:53:16;9.98;;;7.35;;
34876;SDS011;21086;44.780;17.194;2023-03-23T04:55:43;9.20;;;6.82;;
34876;SDS011;21086;44.780;17.194;2023-03-23T04:58:10;10.70;;;6.82;;
34876;SDS011;21086;44.780;17.194;2023-03-23T05:00:37;12.70;;;7.22;;
34876;SDS011;21086;44.780;17.194;2023-03-23T05:03:04;8.25;;;6.30;;
34876;SDS011;21086;44.780;17.194;2023-03-23T05:05:31;11.13;;;6.63;;
34876;SDS011;21086;44.780;17.194;2023-03-23T05:07:59;10.60;;;6.97;;
34876;SDS011;21086;44.780;17.194;2023-03-23T05:10:25;8.00;;;6.13;;
34876;SDS011;21086;44.780;17.194;2023-03-23T05:12:52;16.92;;;6.50;;
34876;SDS011;21086;44.780;17.194;2023-03-23T05:15:19;11.20;;;6.32;;
34876;SDS011;21086;44.780;17.194;2023-03-23T05:17:45;9.63;;;6.25;;
34876;SDS011;21086;44.780;17.194;2023-03-23T05:20:15;7.50;;;5.25;;
34876;SDS011;21086;44.780;17.194;2023-03-23T05:22:45;13.38;;;6.30;;
34876;SDS011;21086;44.780;17.194;2023-03-23T05:25:15;11.25;;;6.93;;
34876;SDS011;21086;44.780;17.194;2023-03-23T05:27:45;11.77;;;6.43;;
34876;SDS011;21086;44.780;17.194;2023-03-23T05:30:14;7.75;;;5.20;;
34876;SDS011;21086;44.780;17.194;2023-03-23T05:32:42;12.48;;;5.93;;
34876;SDS011;21086;44.780;17.194;2023-03-23T05:35:10;12.02;;;7.03;;
34876;SDS011;21086;44.780;17.194;2023-03-23T05:37:37;7.35;;;5.45;;
34876;SDS011;21086;44.780;17.194;2023-03-23T05:40:04;10.43;;;6.35;;
34876;SDS011;21086;44.780;17.194;2023-03-23T05:42:31;11.85;;;7.22;;
34876;SDS011;21086;44.780;17.194;2023-03-23T05:45:00;10.70;;;6.53;;
34876;SDS011;21086;44.780;17.194;2023-03-23T05:47:27;8.35;;;5.90;;
34876;SDS011;21086;44.780;17.194;2023-03-23T05:49:53;8.45;;;6.03;;
34876;SDS011;21086;44.780;17.194;2023-03-23T05:52:19;9.13;;;5.80;;
34876;SDS011;21086;44.780;17.194;2023-03-23T05:54:46;8.60;;;7.15;;
34876;SDS011;21086;44.780;17.194;2023-03-23T05:57:12;11.85;;;6.00;;
34876;SDS011;21086;44.780;17.194;2023-03-23T05:59:38;11.50;;;8.43;;
34876;SDS011;21086;44.780;17.194;2023-03-23T06:02:04;10.30;;;7.72;;
34876;SDS011;21086;44.780;17.194;2023-03-23T06:04:30;12.50;;;8.00;;
34876;SDS011;21086;44.780;17.194;2023-03-23T06:07:01;12.73;;;6.22;;
34876;SDS011;21086;44.780;17.194;2023-03-23T06:09:28;9.68;;;7.18;;
34876;SDS011;21086;44.780;17.194;2023-03-23T06:11:54;17.17;;;12.77;;
34876;SDS011;21086;44.780;17.194;2023-03-23T06:14:20;21.83;;;15.32;;
34876;SDS011;21086;44.780;17.194;2023-03-23T06:16:46;16.65;;;12.10;;
34876;SDS011;21086;44.780;17.194;2023-03-23T06:19:12;15.05;;;8.98;;
34876;SDS011;21086;44.780;17.194;2023-03-23T06:21:40;13.57;;;7.72;;
34876;SDS011;21086;44.780;17.194;2023-03-23T06:24:06;10.90;;;6.10;;
34876;SDS011;21086;44.780;17.194;2023-03-23T06:26:37;15.43;;;6.95;;
34876;SDS011;21086;44.780;17.194;2023-03-23T06:29:04;13.88;;;6.22;;
34876;SDS011;21086;44.780;17.194;2023-03-23T06:31:38;17.20;;;5.82;;
34876;SDS011;21086;44.780;17.194;2023-03-23T06:34:07;12.90;;;5.43;;
34876;SDS011;21086;44.780;17.194;2023-03-23T06:36:34;12.57;;;5.57;;
34876;SDS011;21086;44.780;17.194;2023-03-23T06:39:01;13.18;;;5.30;;
34876;SDS011;21086;44.780;17.194;2023-03-23T06:41:29;7.65;;;4.45;;
34876;SDS011;21086;44.780;17.194;2023-03-23T06:43:59;15.40;;;5.50;;
34876;SDS011;21086;44.780;17.194;2023-03-23T06:46:26;14.55;;;4.68;;
34876;SDS011;21086;44.780;17.194;2023-03-23T06:48:52;15.75;;;5.57;;
34876;SDS011;21086;44.780;17.194;2023-03-23T06:51:19;14.80;;;5.53;;
34876;SDS011;21086;44.780;17.194;2023-03-23T06:53:46;19.60;;;7.32;;
34876;SDS011;21086;44.780;17.194;2023-03-23T06:56:12;15.73;;;5.88;;
34876;SDS011;21086;44.780;17.194;2023-03-23T06:58:39;28.95;;;7.40;;
34876;SDS011;21086;44.780;17.194;2023-03-23T07:01:07;24.05;;;7.38;;
34876;SDS011;21086;44.780;17.194;2023-03-23T07:03:33;13.05;;;6.03;;
34876;SDS011;21086;44.780;17.194;2023-03-23T07:05:59;9.38;;;5.82;;
34876;SDS011;21086;44.780;17.194;2023-03-23T07:08:25;9.57;;;5.30;;
34876;SDS011;21086;44.780;17.194;2023-03-23T07:10:54;13.15;;;6.18;;
34876;SDS011;21086;44.780;17.194;2023-03-23T07:13:21;10.10;;;4.90;;
34876;SDS011;21086;44.780;17.194;2023-03-23T07:15:47;6.60;;;4.82;;
34876;SDS011;21086;44.780;17.194;2023-03-23T07:18:14;7.00;;;4.88;;
34876;SDS011;21086;44.780;17.194;2023-03-23T07:20:40;8.95;;;5.15;;
34876;SDS011;21086;44.780;17.194;2023-03-23T07:23:06;10.07;;;4.65;;
34876;SDS011;21086;44.780;17.194;2023-03-23T07:25:33;16.23;;;4.22;;
34876;SDS011;21086;44.780;17.194;2023-03-23T07:28:01;7.82;;;4.47;;
34876;SDS011;21086;44.780;17.194;2023-03-23T07:30:28;9.07;;;4.85;;
34876;SDS011;21086;44.780;17.194;2023-03-23T07:32:55;10.20;;;4.05;;
34876;SDS011;21086;44.780;17.194;2023-03-23T07:35:23;4.80;;;3.80;;
34876;SDS011;21086;44.780;17.194;2023-03-23T07:37:49;7.88;;;4.40;;
34876;SDS011;21086;44.780;17.194;2023-03-23T07:40:17;6.80;;;4.95;;
34876;SDS011;21086;44.780;17.194;2023-03-23T07:42:45;6.80;;;4.18;;
34876;SDS011;21086;44.780;17.194;2023-03-23T07:45:15;6.22;;;4.03;;
34876;SDS011;21086;44.780;17.194;2023-03-23T07:47:41;9.60;;;4.22;;
34876;SDS011;21086;44.780;17.194;2023-03-23T07:50:07;8.07;;;3.88;;
34876;SDS011;21086;44.780;17.194;2023-03-23T07:52:35;6.95;;;4.30;;
34876;SDS011;21086;44.780;17.194;2023-03-23T07:55:02;6.47;;;3.67;;
34876;SDS011;21086;44.780;17.194;2023-03-23T07:57:29;7.50;;;3.35;;
34876;SDS011;21086;44.780;17.194;2023-03-23T07:59:57;4.05;;;3.03;;
34876;SDS011;21086;44.780;17.194;2023-03-23T08:02:23;7.13;;;2.88;;
34876;SDS011;21086;44.780;17.194;2023-03-23T08:04:50;3.80;;;2.47;;
34876;SDS011;21086;44.780;17.194;2023-03-23T08:07:16;4.93;;;2.65;;
34876;SDS011;21086;44.780;17.194;2023-03-23T08:09:44;7.20;;;2.10;;
34876;SDS011;21086;44.780;17.194;2023-03-23T08:12:11;3.72;;;2.22;;
34876;SDS011;21086;44.780;17.194;2023-03-23T08:14:37;6.70;;;2.00;;
34876;SDS011;21086;44.780;17.194;2023-03-23T08:17:03;6.05;;;2.40;;
34876;SDS011;21086;44.780;17.194;2023-03-23T08:19:29;5.22;;;2.70;;
34876;SDS011;21086;44.780;17.194;2023-03-23T08:21:55;7.80;;;2.90;;
34876;SDS011;21086;44.780;17.194;2023-03-23T08:24:22;6.88;;;3.78;;
34876;SDS011;21086;44.780;17.194;2023-03-23T08:26:48;4.32;;;3.08;;
34876;SDS011;21086;44.780;17.194;2023-03-23T08:29:14;3.80;;;2.17;;
34876;SDS011;21086;44.780;17.194;2023-03-23T08:31:41;7.65;;;2.38;;
34876;SDS011;21086;44.780;17.194;2023-03-23T08:34:09;4.47;;;2.35;;
34876;SDS011;21086;44.780;17.194;2023-03-23T08:36:36;3.40;;;2.42;;
34876;SDS011;21086;44.780;17.194;2023-03-23T08:39:03;5.35;;;2.80;;
34876;SDS011;21086;44.780;17.194;2023-03-23T08:41:30;4.13;;;1.90;;
34876;SDS011;21086;44.780;17.194;2023-03-23T08:43:57;4.70;;;2.38;;
34876;SDS011;21086;44.780;17.194;2023-03-23T08:46:23;3.60;;;1.92;;
34876;SDS011;21086;44.780;17.194;2023-03-23T08:48:49;2.35;;;1.65;;
34876;SDS011;21086;44.780;17.194;2023-03-23T08:51:15;3.03;;;1.50;;
34876;SDS011;21086;44.780;17.194;2023-03-23T08:53:42;2.97;;;1.90;;
34876;SDS011;21086;44.780;17.194;2023-03-23T08:56:10;5.50;;;2.17;;
34876;SDS011;21086;44.780;17.194;2023-03-23T08:58:37;2.08;;;1.83;;
34876;SDS011;21086;44.780;17.194;2023-03-23T09:01:05;3.75;;;1.52;;
34876;SDS011;21086;44.780;17.194;2023-03-23T09:03:33;2.17;;;1.58;;
34876;SDS011;21086;44.780;17.194;2023-03-23T09:06:00;2.80;;;1.70;;
34876;SDS011;21086;44.780;17.194;2023-03-23T09:08:28;2.03;;;1.50;;
34876;SDS011;21086;44.780;17.194;2023-03-23T09:10:57;6.70;;;2.00;;
34876;SDS011;21086;44.780;17.194;2023-03-23T09:13:24;3.55;;;2.25;;
34876;SDS011;21086;44.780;17.194;2023-03-23T09:15:50;4.57;;;1.77;;
34876;SDS011;21086;44.780;17.194;2023-03-23T09:18:17;5.32;;;1.52;;
34876;SDS011;21086;44.780;17.194;2023-03-23T09:20:44;3.00;;;1.40;;
34876;SDS011;21086;44.780;17.194;2023-03-23T09:23:11;3.55;;;1.42;;
34876;SDS011;21086;44.780;17.194;2023-03-23T09:25:38;3.25;;;1.48;;
34876;SDS011;21086;44.780;17.194;2023-03-23T09:28:04;5.90;;;1.80;;
34876;SDS011;21086;44.780;17.194;2023-03-23T09:30:31;6.07;;;1.65;;
34876;SDS011;21086;44.780;17.194;2023-03-23T09:32:59;3.45;;;2.03;;
34876;SDS011;21086;44.780;17.194;2023-03-23T09:35:27;2.78;;;1.88;;
34876;SDS011;21086;44.780;17.194;2023-03-23T09:37:53;3.40;;;2.00;;
34876;SDS011;21086;44.780;17.194;2023-03-23T09:40:20;4.18;;;1.90;;
34876;SDS011;21086;44.780;17.194;2023-03-23T09:45:58;5.70;;;2.35;;
34876;SDS011;21086;44.780;17.194;2023-03-23T09:48:58;5.10;;;1.75;;
34876;SDS011;21086;44.780;17.194;2023-03-23T09:51:48;2.00;;;1.33;;
34876;SDS011;21086;44.780;17.194;2023-03-23T09:54:56;3.10;;;1.58;;
34876;SDS011;21086;44.780;17.194;2023-03-23T10:05:47;3.08;;;1.65;;
34876;SDS011;21086;44.780;17.194;2023-03-23T10:15:50;1.88;;;1.02;;
34876;SDS011;21086;44.780;17.194;2023-03-23T10:20:53;2.72;;;1.40;;
34876;SDS011;21086;44.780;17.194;2023-03-23T10:28:44;1.50;;;0.77;;
34876;SDS011;21086;44.780;17.194;2023-03-23T10:31:14;3.33;;;0.73;;
34876;SDS011;21086;44.780;17.194;2023-03-23T10:33:44;1.10;;;0.73;;
34876;SDS011;21086;44.780;17.194;2023-03-23T10:36:33;0.85;;;0.68;;
34876;SDS011;21086;44.780;17.194;2023-03-23T10:41:42;1.23;;;0.65;;
34876;SDS011;21086;44.780;17.194;2023-03-23T10:44:18;1.70;;;0.80;;
34876;SDS011;21086;44.780;17.194;2023-03-23T10:47:00;3.78;;;2.28;;
34876;SDS011;21086;44.780;17.194;2023-03-23T10:49:54;1.52;;;0.82;;
34876;SDS011;21086;44.780;17.194;2023-03-23T10:52:36;2.00;;;0.50;;
34876;SDS011;21086;44.780;17.194;2023-03-23T10:55:08;1.67;;;0.60;;
34876;SDS011;21086;44.780;17.194;2023-03-23T10:57:34;2.83;;;1.00;;
34876;SDS011;21086;44.780;17.194;2023-03-23T11:00:04;1.15;;;0.70;;
34876;SDS011;21086;44.780;17.194;2023-03-23T11:02:36;2.85;;;0.57;;
34876;SDS011;21086;44.780;17.194;2023-03-23T11:05:14;1.90;;;0.70;;
34876;SDS011;21086;44.780;17.194;2023-03-23T11:07:53;0.95;;;0.75;;
34876;SDS011;21086;44.780;17.194;2023-03-23T11:10:42;2.10;;;0.98;;
34876;SDS011;21086;44.780;17.194;2023-03-23T11:13:13;1.25;;;0.80;;
34876;SDS011;21086;44.780;17.194;2023-03-23T11:15:41;1.25;;;0.60;;
34876;SDS011;21086;44.780;17.194;2023-03-23T11:18:11;1.15;;;0.68;;
34876;SDS011;21086;44.780;17.194;2023-03-23T11:20:43;1.88;;;0.82;;
34876;SDS011;21086;44.780;17.194;2023-03-23T11:23:23;1.65;;;0.70;;
34876;SDS011;21086;44.780;17.194;2023-03-23T11:28:46;0.93;;;0.68;;
34876;SDS011;21086;44.780;17.194;2023-03-23T11:31:33;0.60;;;0.40;;
34876;SDS011;21086;44.780;17.194;2023-03-23T11:34:15;0.30;;;0.30;;
34876;SDS011;21086;44.780;17.194;2023-03-23T11:36:47;2.80;;;0.30;;
34876;SDS011;21086;44.780;17.194;2023-03-23T11:39:34;0.80;;;0.40;;
34876;SDS011;21086;44.780;17.194;2023-03-23T11:42:20;3.00;;;0.60;;
34876;SDS011;21086;44.780;17.194;2023-03-23T11:44:48;2.47;;;0.80;;
34876;SDS011;21086;44.780;17.194;2023-03-23T11:50:14;1.02;;;0.60;;
34876;SDS011;21086;44.780;17.194;2023-03-23T11:53:02;2.30;;;0.40;;
34876;SDS011;21086;44.780;17.194;2023-03-23T11:58:35;1.13;;;0.45;;
34876;SDS011;21086;44.780;17.194;2023-03-23T12:01:05;1.33;;;0.65;;
34876;SDS011;21086;44.780;17.194;2023-03-23T12:06:46;1.90;;;0.70;;
34876;SDS011;21086;44.780;17.194;2023-03-23T12:09:18;1.10;;;0.65;;
34876;SDS011;21086;44.780;17.194;2023-03-23T12:12:14;1.00;;;0.70;;
34876;SDS011;21086;44.780;17.194;2023-03-23T12:32:14;1.60;;;0.60;;
34876;SDS011;21086;44.780;17.194;2023-03-23T12:40:33;3.20;;;1.00;;
34876;SDS011;21086;44.780;17.194;2023-03-23T12:48:57;3.22;;;0.55;;
34876;SDS011;21086;44.780;17.194;2023-03-23T12:54:38;2.00;;;0.60;;
34876;SDS011;21086;44.780;17.194;2023-03-23T13:05:10;3.05;;;0.70;;
34876;SDS011;21086;44.780;17.194;2023-03-23T13:07:41;0.68;;;0.50;;
34876;SDS011;21086;44.780;17.194;2023-03-23T13:10:15;0.47;;;0.40;;
34876;SDS011;21086;44.780;17.194;2023-03-23T13:12:44;0.73;;;0.63;;
34876;SDS011;21086;44.780;17.194;2023-03-23T13:23:21;1.05;;;0.73;;
34876;SDS011;21086;44.780;17.194;2023-03-23T13:28:28;1.00;;;0.60;;
34876;SDS011;21086;44.780;17.194;2023-03-23T13:30:58;1.63;;;0.50;;
34876;SDS011;21086;44.780;17.194;2023-03-23T13:33:34;2.97;;;0.80;;
34876;SDS011;21086;44.780;17.194;2023-03-23T13:36:04;0.70;;;0.70;;
34876;SDS011;21086;44.780;17.194;2023-03-23T13:38:38;1.52;;;0.50;;
34876;SDS011;21086;44.780;17.194;2023-03-23T13:41:12;2.05;;;0.60;;
34876;SDS011;21086;44.780;17.194;2023-03-23T13:43:41;0.90;;;0.57;;
34876;SDS011;21086;44.780;17.194;2023-03-23T13:46:28;0.90;;;0.70;;
34876;SDS011;21086;44.780;17.194;2023-03-23T13:56:53;4.47;;;2.63;;
34876;SDS011;21086;44.780;17.194;2023-03-23T14:02:29;2.75;;;1.23;;
34876;SDS011;21086;44.780;17.194;2023-03-23T14:04:53;3.00;;;1.10;;
34876;SDS011;21086;44.780;17.194;2023-03-23T14:07:20;1.40;;;0.85;;
34876;SDS011;21086;44.780;17.194;2023-03-23T14:09:45;2.90;;;0.90;;
34876;SDS011;21086;44.780;17.194;2023-03-23T14:14:48;1.35;;;0.88;;
34876;SDS011;21086;44.780;17.194;2023-03-23T14:17:23;1.20;;;1.10;;
34876;SDS011;21086;44.780;17.194;2023-03-23T14:19:54;0.75;;;0.60;;
34876;SDS011;21086;44.780;17.194;2023-03-23T14:22:23;1.08;;;0.60;;
34876;SDS011;21086;44.780;17.194;2023-03-23T14:24:51;0.98;;;0.70;;
34876;SDS011;21086;44.780;17.194;2023-03-23T14:27:23;2.30;;;0.80;;
34876;SDS011;21086;44.780;17.194;2023-03-23T14:30:00;0.90;;;0.73;;
34876;SDS011;21086;44.780;17.194;2023-03-23T14:32:29;1.98;;;0.80;;
34876;SDS011;21086;44.780;17.194;2023-03-23T14:34:57;1.30;;;0.65;;
34876;SDS011;21086;44.780;17.194;2023-03-23T14:37:25;2.30;;;0.68;;
34876;SDS011;21086;44.780;17.194;2023-03-23T14:39:52;2.17;;;0.90;;
34876;SDS011;21086;44.780;17.194;2023-03-23T14:42:23;0.80;;;0.70;;
34876;SDS011;21086;44.780;17.194;2023-03-23T14:44:57;2.70;;;0.90;;
34876;SDS011;21086;44.780;17.194;2023-03-23T14:47:35;1.67;;;0.80;;
34876;SDS011;21086;44.780;17.194;2023-03-23T14:50:05;1.75;;;1.05;;
34876;SDS011;21086;44.780;17.194;2023-03-23T14:52:47;0.98;;;0.88;;
34876;SDS011;21086;44.780;17.194;2023-03-23T14:55:16;2.00;;;1.13;;
34876;SDS011;21086;44.780;17.194;2023-03-23T14:57:47;1.52;;;1.25;;
34876;SDS011;21086;44.780;17.194;2023-03-23T15:00:25;2.67;;;1.20;;
34876;SDS011;21086;44.780;17.194;2023-03-23T15:02:59;1.42;;;1.05;;
34876;SDS011;21086;44.780;17.194;2023-03-23T15:05:35;2.25;;;1.50;;
34876;SDS011;21086;44.780;17.194;2023-03-23T15:08:07;2.15;;;1.30;;
34876;SDS011;21086;44.780;17.194;2023-03-23T15:10:38;2.83;;;1.73;;
34876;SDS011;21086;44.780;17.194;2023-03-23T15:13:05;5.05;;;1.60;;
34876;SDS011;21086;44.780;17.194;2023-03-23T15:15:35;2.58;;;1.75;;
34876;SDS011;21086;44.780;17.194;2023-03-23T15:18:02;1.92;;;1.55;;
34876;SDS011;21086;44.780;17.194;2023-03-23T15:20:45;2.58;;;1.48;;
34876;SDS011;21086;44.780;17.194;2023-03-23T15:23:16;2.47;;;1.73;;
34876;SDS011;21086;44.780;17.194;2023-03-23T15:25:52;6.00;;;1.48;;
34876;SDS011;21086;44.780;17.194;2023-03-23T15:28:21;2.10;;;1.50;;
34876;SDS011;21086;44.780;17.194;2023-03-23T15:30:54;7.47;;;1.50;;
34876;SDS011;21086;44.780;17.194;2023-03-23T15:33:23;2.75;;;1.30;;
34876;SDS011;21086;44.780;17.194;2023-03-23T15:35:54;2.03;;;1.40;;
34876;SDS011;21086;44.780;17.194;2023-03-23T15:38:22;5.15;;;1.42;;
34876;SDS011;21086;44.780;17.194;2023-03-23T15:40:51;5.28;;;1.63;;
34876;SDS011;21086;44.780;17.194;2023-03-23T15:43:19;3.05;;;1.48;;
34876;SDS011;21086;44.780;17.194;2023-03-23T15:45:58;2.05;;;1.40;;
34876;SDS011;21086;44.780;17.194;2023-03-23T15:48:28;2.58;;;1.80;;
34876;SDS011;21086;44.780;17.194;2023-03-23T15:51:14;2.22;;;1.60;;
34876;SDS011;21086;44.780;17.194;2023-03-23T15:53:41;2.72;;;1.40;;
34876;SDS011;21086;44.780;17.194;2023-03-23T15:56:09;3.92;;;1.10;;
34876;SDS011;21086;44.780;17.194;2023-03-23T15:58:36;5.07;;;2.70;;
34876;SDS011;21086;44.780;17.194;2023-03-23T16:01:17;3.45;;;1.98;;
34876;SDS011;21086;44.780;17.194;2023-03-23T16:03:53;3.25;;;2.30;;
34876;SDS011;21086;44.780;17.194;2023-03-23T16:06:25;2.20;;;1.38;;
34876;SDS011;21086;44.780;17.194;2023-03-23T16:08:54;3.47;;;1.38;;
34876;SDS011;21086;44.780;17.194;2023-03-23T16:11:22;2.22;;;1.55;;
34876;SDS011;21086;44.780;17.194;2023-03-23T16:13:51;3.97;;;1.95;;
34876;SDS011;21086;44.780;17.194;2023-03-23T16:16:40;5.60;;;2.25;;
34876;SDS011;21086;44.780;17.194;2023-03-23T16:19:12;3.60;;;1.95;;
34876;SDS011;21086;44.780;17.194;2023-03-23T16:21:40;4.47;;;1.85;;
34876;SDS011;21086;44.780;17.194;2023-03-23T16:24:08;4.93;;;2.35;;
34876;SDS011;21086;44.780;17.194;2023-03-23T16:26:36;3.60;;;2.30;;
34876;SDS011;21086;44.780;17.194;2023-03-23T16:29:09;3.45;;;2.20;;
34876;SDS011;21086;44.780;17.194;2023-03-23T16:31:49;5.30;;;2.50;;
34876;SDS011;21086;44.780;17.194;2023-03-23T16:34:16;6.25;;;1.90;;
34876;SDS011;21086;44.780;17.194;2023-03-23T16:36:43;3.65;;;1.90;;
34876;SDS011;21086;44.780;17.194;2023-03-23T16:39:11;8.68;;;2.10;;
34876;SDS011;21086;44.780;17.194;2023-03-23T16:41:38;4.00;;;2.33;;
34876;SDS011;21086;44.780;17.194;2023-03-23T16:44:06;7.63;;;5.15;;
34876;SDS011;21086;44.780;17.194;2023-03-23T16:46:33;12.00;;;7.25;;
34876;SDS011;21086;44.780;17.194;2023-03-23T16:49:00;14.85;;;8.35;;
34876;SDS011;21086;44.780;17.194;2023-03-23T16:51:26;16.60;;;10.25;;
34876;SDS011;21086;44.780;17.194;2023-03-23T16:53:53;19.83;;;14.02;;
34876;SDS011;21086;44.780;17.194;2023-03-23T16:56:20;19.15;;;12.80;;